M I D A S
Marine Information and Data Acquisition System
Tripno 1856 of the Zeeleeuw from 2010-04-07 09:01:31 to 2010-04-07 14:18:54
Back to CruiseResearch ActivitiesStationsMapUnderway DataData graphs

EquipmentUnitsComment
TimeDGPSUTC
LatitudeDGPSDM.mWGS84
LongitudeDGPSDM.mWGS84
HeadingGyrodeg 
SOGDGPSknotsSpeed over ground
COGDGPSdegCourse over ground
DepthEcho soundermeters200 kHz
Missing or incorrect values are displayed as -999
Navigation data collected by the RV Zeeleeuw from 2010-04-07 06:36:08 to 2010-04-07 14:20:56
                                                                                    Next 1000 lines
Time Latitude Longitude Heading SOG COG Depth
2010-04-07 06:36:18 51°13.666 2°55.96 126.4 0.2 12 -999
2010-04-07 06:36:23 51°13.665 2°55.96 126.4 0.1 11 -999
2010-04-07 06:36:28 51°13.665 2°55.96 126.4 -999 271 -999
2010-04-07 06:36:33 51°13.665 2°55.96 126.4 -999 254 -999
2010-04-07 06:36:38 51°13.666 2°55.961 126.4 0.1 9 -999
2010-04-07 06:36:43 51°13.666 2°55.961 126.4 -999 2 -999
2010-04-07 06:36:48 51°13.666 2°55.961 126.4 -999 317 -999
2010-04-07 06:36:53 51°13.666 2°55.961 126.4 0.1 193 -999
2010-04-07 06:36:58 51°13.666 2°55.961 126.4 0.2 192 -999
2010-04-07 06:37:03 51°13.666 2°55.961 126.4 -999 203 -999
2010-04-07 06:37:08 51°13.666 2°55.961 126.4 0.1 15 -999
2010-04-07 06:37:13 51°13.666 2°55.961 126.4 -999 208 -999
2010-04-07 06:37:18 51°13.666 2°55.961 126.4 0.1 195 -999
2010-04-07 06:37:23 51°13.666 2°55.961 126.4 0.1 186 -999
2010-04-07 06:37:28 51°13.666 2°55.961 126.4 -999 37 -999
2010-04-07 06:37:33 51°13.666 2°55.961 126.4 0.1 24 -999
2010-04-07 06:37:38 51°13.666 2°55.961 126.4 0.1 18 -999
2010-04-07 06:37:43 51°13.666 2°55.961 126.4 -999 2 -999
2010-04-07 06:37:48 51°13.667 2°55.961 126.4 0.1 11 -999
2010-04-07 06:37:53 51°13.666 2°55.961 126.4 0.1 7 -999
2010-04-07 06:37:59 51°13.666 2°55.961 126.4 -999 214 -999
2010-04-07 06:38:03 51°13.666 2°55.961 126.4 0.1 211 -999
2010-04-07 06:38:09 51°13.666 2°55.961 126.4 -999 213 -999
2010-04-07 06:38:13 51°13.666 2°55.961 126.4 0.1 200 -999
2010-04-07 06:38:19 51°13.666 2°55.961 126.4 0.1 200 -999
2010-04-07 06:38:23 51°13.666 2°55.961 126.4 0.1 196 -999
2010-04-07 06:38:28 51°13.667 2°55.961 126.4 0.1 194 -999
2010-04-07 06:38:33 51°13.667 2°55.961 126.4 -999 65 -999
2010-04-07 06:38:39 51°13.667 2°55.961 126.4 -999 153 -999
2010-04-07 06:38:44 51°13.667 2°55.96 126.4 0.1 195 -999
2010-04-07 06:38:49 51°13.667 2°55.96 126.4 -999 133 -999
2010-04-07 06:38:53 51°13.667 2°55.961 126.4 -999 55 -999
2010-04-07 06:38:59 51°13.667 2°55.961 126.4 0.1 158 -999
2010-04-07 06:39:04 51°13.667 2°55.96 126.4 0.2 201 -999
2010-04-07 06:39:08 51°13.667 2°55.96 126.4 0.1 215 -999
2010-04-07 06:39:14 51°13.667 2°55.961 126.4 0.1 212 -999
2010-04-07 06:39:19 51°13.667 2°55.961 126.4 0.1 218 -999
2010-04-07 06:39:24 51°13.667 2°55.961 126.4 -999 174 -999
2010-04-07 06:39:28 51°13.667 2°55.961 126.4 0.1 185 -999
2010-04-07 06:39:34 51°13.667 2°55.961 126.4 -999 194 -999
2010-04-07 06:39:38 51°13.667 2°55.961 126.4 -999 99 -999
2010-04-07 06:39:44 51°13.667 2°55.961 126.4 -999 163 -999
2010-04-07 06:39:48 51°13.667 2°55.961 126.4 -999 175 -999
2010-04-07 06:39:54 51°13.667 2°55.961 126.4 -999 167 -999
2010-04-07 06:39:58 51°13.667 2°55.961 126.4 0.1 200 -999
2010-04-07 06:40:03 51°13.667 2°55.961 126.4 0.1 197 -999
2010-04-07 06:40:09 51°13.665 2°55.961 126.4 -999 217 -999
2010-04-07 06:40:14 51°13.664 2°55.96 126.4 -999 -999 -999
2010-04-07 06:40:18 51°13.664 2°55.96 126.4 0.1 8 -999
2010-04-07 06:40:23 51°13.663 2°55.96 126.4 -999 176 -999
2010-04-07 06:40:29 51°13.663 2°55.961 126.4 -999 11 -999
2010-04-07 06:40:34 51°13.663 2°55.961 126.3 -999 18 -999
2010-04-07 06:40:38 51°13.663 2°55.961 126.3 -999 321 -999
2010-04-07 06:40:43 51°13.663 2°55.961 126.3 -999 12 -999
2010-04-07 06:40:49 51°13.663 2°55.961 126.3 -999 184 -999
2010-04-07 06:40:53 51°13.663 2°55.961 126.3 -999 346 -999
2010-04-07 06:40:59 51°13.663 2°55.961 126.3 -999 19 -999
2010-04-07 06:41:04 51°13.662 2°55.961 126.3 -999 86 -999
2010-04-07 06:41:09 51°13.662 2°55.961 126.3 -999 215 -999
2010-04-07 06:41:13 51°13.662 2°55.96 126.3 0.1 227 -999
2010-04-07 06:41:19 51°13.662 2°55.961 126.3 0.1 359 -999
2010-04-07 06:41:24 51°13.662 2°55.961 126.3 -999 60 -999
2010-04-07 06:41:28 51°13.662 2°55.961 126.3 0.1 218 -999
2010-04-07 06:41:34 51°13.662 2°55.961 126.3 -999 255 -999
2010-04-07 06:41:39 51°13.662 2°55.961 126.3 -999 25 -999
2010-04-07 06:41:44 51°13.662 2°55.961 126.3 -999 12 -999
2010-04-07 06:41:48 51°13.662 2°55.961 126.3 -999 117 -999
2010-04-07 06:41:54 51°13.662 2°55.96 126.3 0.1 206 -999
2010-04-07 06:41:58 51°13.662 2°55.96 126.3 -999 357 -999
2010-04-07 06:42:04 51°13.662 2°55.96 126.3 0.1 209 -999
2010-04-07 06:42:08 51°13.662 2°55.96 126.3 -999 230 -999
2010-04-07 06:42:14 51°13.662 2°55.96 126.3 -999 64 -999
2010-04-07 06:42:18 51°13.662 2°55.96 126.3 -999 16 -999
2010-04-07 06:42:23 51°13.662 2°55.96 126.3 -999 338 -999
2010-04-07 06:42:28 51°13.662 2°55.96 126.3 -999 262 -999
2010-04-07 06:42:33 51°13.662 2°55.96 126.3 -999 194 -999
2010-04-07 06:42:38 51°13.662 2°55.96 126.3 -999 216 -999
2010-04-07 06:42:43 51°13.662 2°55.96 126.3 -999 79 -999
2010-04-07 06:42:49 51°13.662 2°55.96 126.3 -999 310 -999
2010-04-07 06:42:54 51°13.662 2°55.96 126.3 0.1 353 -999
2010-04-07 06:42:58 51°13.662 2°55.96 126.3 -999 341 -999
2010-04-07 06:43:03 51°13.662 2°55.96 126.3 0.1 349 -999
2010-04-07 06:43:09 51°13.662 2°55.96 126.3 0.1 21 -999
2010-04-07 06:43:13 51°13.662 2°55.96 126.3 -999 188 -999
2010-04-07 06:43:19 51°13.662 2°55.96 126.3 -999 127 -999
2010-04-07 06:43:24 51°13.662 2°55.961 126.3 -999 9 -999
2010-04-07 06:43:29 51°13.662 2°55.961 126.3 0.1 33 -999
2010-04-07 06:43:33 51°13.662 2°55.961 126.3 -999 32 -999
2010-04-07 06:43:39 51°13.662 2°55.961 126.3 -999 30 -999
2010-04-07 06:43:44 51°13.662 2°55.96 126.3 -999 25 -999
2010-04-07 06:43:49 51°13.662 2°55.96 126.3 -999 330 -999
2010-04-07 06:43:53 51°13.662 2°55.96 126.3 -999 318 -999
2010-04-07 06:43:59 51°13.662 2°55.961 126.3 0.1 24 -999
2010-04-07 06:44:04 51°13.662 2°55.961 126.3 -999 34 -999
2010-04-07 06:44:08 51°13.662 2°55.961 126.3 -999 53 -999
2010-04-07 06:44:14 51°13.662 2°55.961 126.3 -999 317 -999
2010-04-07 06:44:16 51°13.662 2°55.961 126.3 -999 10 -999
2010-04-07 06:44:23 51°13.661 2°55.964 126.3 -999 15 -999
2010-04-07 06:44:28 51°13.66 2°55.964 126.3 0.1 27 -999
2010-04-07 06:44:34 51°13.66 2°55.963 126.3 -999 35 -999
2010-04-07 06:44:38 51°13.66 2°55.962 126.3 -999 307 -999
2010-04-07 06:44:43 51°13.659 2°55.961 126.3 -999 305 -999
2010-04-07 06:44:49 51°13.659 2°55.961 126.3 -999 203 -999
2010-04-07 06:44:53 51°13.659 2°55.96 126.3 0.1 209 -999
2010-04-07 06:44:59 51°13.659 2°55.96 126.3 0.1 215 -999
2010-04-07 06:45:03 51°13.659 2°55.959 126.3 0.1 213 -999
2010-04-07 06:45:09 51°13.66 2°55.959 126.3 0.1 217 -999
2010-04-07 06:45:13 51°13.66 2°55.959 126.3 -999 304 -999
2010-04-07 06:45:19 51°13.66 2°55.959 126.3 -999 235 -999
2010-04-07 06:45:23 51°13.66 2°55.959 126.3 -999 350 -999
2010-04-07 06:45:29 51°13.66 2°55.959 126.3 -999 11 -999
2010-04-07 06:45:33 51°13.66 2°55.959 126.3 0.1 17 -999
2010-04-07 06:45:39 51°13.66 2°55.959 126.3 -999 284 -999
2010-04-07 06:45:44 51°13.66 2°55.959 126.3 -999 204 -999
2010-04-07 06:45:49 51°13.66 2°55.959 126.3 0.1 207 -999
2010-04-07 06:45:53 51°13.66 2°55.959 126.3 0.1 211 -999
2010-04-07 06:45:59 51°13.66 2°55.959 126.3 -999 205 -999
2010-04-07 06:46:04 51°13.661 2°55.959 126.3 -999 338 -999
2010-04-07 06:46:08 51°13.661 2°55.96 126.3 -999 29 -999
2010-04-07 06:46:14 51°13.66 2°55.96 126.3 -999 24 -999
2010-04-07 06:46:19 51°13.66 2°55.96 126.3 -999 240 -999
2010-04-07 06:46:24 51°13.66 2°55.96 126.3 0.1 207 -999
2010-04-07 06:46:28 51°13.66 2°55.96 126.4 0.1 208 -999
2010-04-07 06:46:34 51°13.66 2°55.96 126.4 -999 201 -999
2010-04-07 06:46:38 51°13.66 2°55.96 126.4 -999 207 -999
2010-04-07 06:46:43 51°13.66 2°55.961 126.4 -999 16 -999
2010-04-07 06:46:48 51°13.659 2°55.961 126.4 0.1 149 -999
2010-04-07 06:46:54 51°13.658 2°55.961 126.4 0.1 164 -999
2010-04-07 06:46:58 51°13.658 2°55.962 126.4 0.3 162 -999
2010-04-07 06:47:03 51°13.658 2°55.962 126.4 0.3 164 -999
2010-04-07 06:47:08 51°13.658 2°55.962 126.4 0.2 167 -999
2010-04-07 06:47:14 51°13.658 2°55.961 126.4 0.2 167 -999
2010-04-07 06:47:18 51°13.658 2°55.961 126.4 -999 245 -999
2010-04-07 06:47:23 51°13.657 2°55.961 126.4 0.3 159 -999
2010-04-07 06:47:29 51°13.658 2°55.961 126.4 0.2 168 -999
2010-04-07 06:47:34 51°13.659 2°55.961 126.4 0.1 184 -999
2010-04-07 06:47:38 51°13.659 2°55.961 126.4 -999 267 -999
2010-04-07 06:47:43 51°13.659 2°55.961 126.4 -999 324 -999
2010-04-07 06:47:49 51°13.659 2°55.961 126.4 -999 331 -999
2010-04-07 06:47:53 51°13.659 2°55.961 126.4 0.1 328 -999
2010-04-07 06:47:59 51°13.659 2°55.961 126.4 0.1 170 -999
2010-04-07 06:48:03 51°13.659 2°55.961 126.4 0.1 180 -999
2010-04-07 06:48:09 51°13.659 2°55.961 126.4 0.1 185 -999
2010-04-07 06:48:13 51°13.659 2°55.961 126.4 0.1 178 -999
2010-04-07 06:48:19 51°13.659 2°55.96 126.4 0.1 184 -999
2010-04-07 06:48:24 51°13.659 2°55.96 126.4 -999 209 -999
2010-04-07 06:48:29 51°13.659 2°55.96 126.4 0.1 164 -999
2010-04-07 06:48:33 51°13.659 2°55.96 126.4 0.1 164 -999
2010-04-07 06:48:39 51°13.659 2°55.96 126.4 0.1 193 -999
2010-04-07 06:48:44 51°13.659 2°55.961 126.4 0.1 179 -999
2010-04-07 06:48:48 51°13.659 2°55.961 126.4 0.1 166 -999
2010-04-07 06:48:53 51°13.658 2°55.961 126.4 0.1 185 -999
2010-04-07 06:48:59 51°13.659 2°55.961 126.4 0.1 314 -999
2010-04-07 06:49:04 51°13.658 2°55.961 126.5 -999 176 -999
2010-04-07 06:49:08 51°13.658 2°55.961 126.5 0.1 185 -999
2010-04-07 06:49:13 51°13.658 2°55.961 126.5 0.1 204 -999
2010-04-07 06:49:18 51°13.658 2°55.961 126.5 0.1 236 -999
2010-04-07 06:49:23 51°13.658 2°55.961 126.5 0.1 176 -999
2010-04-07 06:49:28 51°13.658 2°55.961 126.5 0.2 183 -999
2010-04-07 06:49:33 51°13.658 2°55.961 126.5 0.1 177 -999
2010-04-07 06:49:38 51°13.658 2°55.961 126.5 0.1 184 -999
2010-04-07 06:49:43 51°13.658 2°55.961 126.5 0.2 171 -999
2010-04-07 06:49:49 51°13.658 2°55.961 126.5 0.2 170 -999
2010-04-07 06:49:53 51°13.658 2°55.961 126.5 0.1 168 -999
2010-04-07 06:49:58 51°13.658 2°55.961 126.5 0.1 170 -999
2010-04-07 06:50:03 51°13.66 2°55.961 126.5 0.1 200 -999
2010-04-07 06:50:09 51°13.661 2°55.961 126.5 -999 234 -999
2010-04-07 06:50:14 51°13.662 2°55.962 126.5 0.1 212 -999
2010-04-07 06:50:18 51°13.662 2°55.962 126.5 0.1 196 -999
2010-04-07 06:50:23 51°13.662 2°55.962 126.5 -999 239 -999
2010-04-07 06:50:29 51°13.662 2°55.962 126.5 0.1 17 -999
2010-04-07 06:50:33 51°13.662 2°55.962 126.5 -999 69 -999
2010-04-07 06:50:39 51°13.662 2°55.962 126.5 -999 155 -999
2010-04-07 06:50:44 51°13.663 2°55.962 126.5 0.1 198 -999
2010-04-07 06:50:49 51°13.663 2°55.962 126.5 -999 71 -999
2010-04-07 06:50:53 51°13.663 2°55.962 126.5 0.1 19 -999
2010-04-07 06:50:59 51°13.664 2°55.962 126.5 -999 42 -999
2010-04-07 06:51:04 51°13.664 2°55.962 126.5 -999 225 -999
2010-04-07 06:51:07 51°13.664 2°55.962 126.5 -999 200 -999
2010-04-07 06:51:14 51°13.664 2°55.961 126.5 -999 341 -999
2010-04-07 06:51:19 51°13.664 2°55.961 126.5 -999 287 -999
2010-04-07 06:51:23 51°13.663 2°55.961 126.5 -999 49 -999
2010-04-07 06:51:28 51°13.662 2°55.961 126.5 -999 39 -999
2010-04-07 06:51:33 51°13.662 2°55.96 126.5 -999 33 -999
2010-04-07 06:51:38 51°13.662 2°55.96 126.5 -999 137 -999
2010-04-07 06:51:43 51°13.662 2°55.96 126.5 -999 351 -999
2010-04-07 06:51:48 51°13.662 2°55.96 126.5 -999 353 -999
2010-04-07 06:51:53 51°13.662 2°55.96 126.5 -999 30 -999
2010-04-07 06:51:58 51°13.662 2°55.96 126.5 -999 98 -999
2010-04-07 06:52:03 51°13.662 2°55.96 126.5 -999 30 -999
2010-04-07 06:52:07 51°13.662 2°55.96 126.5 -999 348 -999
2010-04-07 06:52:13 51°13.662 2°55.96 126.5 -999 307 -999
2010-04-07 06:52:17 51°13.662 2°55.96 126.5 -999 335 -999
2010-04-07 06:52:23 51°13.662 2°55.96 126.5 -999 185 -999
2010-04-07 06:52:27 51°13.662 2°55.96 126.5 -999 3 -999
2010-04-07 06:52:33 51°13.662 2°55.96 126.5 -999 56 -999
2010-04-07 06:52:37 51°13.662 2°55.96 126.5 -999 198 -999
2010-04-07 06:52:43 51°13.662 2°55.959 126.5 -999 224 -999
2010-04-07 06:52:47 51°13.662 2°55.96 126.5 -999 47 -999
2010-04-07 06:52:53 51°13.662 2°55.959 126.4 -999 120 -999
2010-04-07 06:52:57 51°13.662 2°55.96 126.4 -999 110 -999
2010-04-07 06:53:03 51°13.662 2°55.959 126.4 -999 308 -999
2010-04-07 06:53:09 51°13.662 2°55.96 126.4 -999 327 -999
2010-04-07 06:53:13 51°13.662 2°55.96 126.4 -999 336 -999
2010-04-07 06:53:18 51°13.662 2°55.96 126.4 -999 243 -999
2010-04-07 06:53:23 51°13.662 2°55.96 126.4 -999 149 -999
2010-04-07 06:53:29 51°13.662 2°55.96 126.4 -999 211 -999
2010-04-07 06:53:33 51°13.662 2°55.96 126.4 -999 315 -999
2010-04-07 06:53:37 51°13.662 2°55.96 126.4 0.1 10 -999
2010-04-07 06:53:43 51°13.662 2°55.96 126.4 -999 81 -999
2010-04-07 06:53:47 51°13.661 2°55.959 126.4 -999 356 -999
2010-04-07 06:53:53 51°13.661 2°55.959 126.4 -999 319 -999
2010-04-07 06:53:59 51°13.661 2°55.959 126.4 -999 91 -999
2010-04-07 06:54:03 51°13.661 2°55.959 126.4 -999 51 -999
2010-04-07 06:54:07 51°13.661 2°55.959 126.4 -999 24 -999
2010-04-07 06:54:13 51°13.661 2°55.959 126.4 -999 88 -999
2010-04-07 06:54:19 51°13.661 2°55.959 126.4 -999 185 -999
2010-04-07 06:54:23 51°13.661 2°55.959 126.4 -999 117 -999
2010-04-07 06:54:27 51°13.661 2°55.959 126.4 -999 297 -999
2010-04-07 06:54:33 51°13.661 2°55.959 126.4 -999 313 -999
2010-04-07 06:54:37 51°13.661 2°55.959 126.4 -999 297 -999
2010-04-07 06:54:43 51°13.661 2°55.959 126.3 -999 90 -999
2010-04-07 06:54:47 51°13.661 2°55.959 126.3 -999 114 -999
2010-04-07 06:54:53 51°13.661 2°55.959 126.3 -999 107 -999
2010-04-07 06:54:57 51°13.661 2°55.959 126.3 -999 326 -999
2010-04-07 06:55:03 51°13.661 2°55.959 126.3 -999 13 -999
2010-04-07 06:55:07 51°13.661 2°55.959 126.4 -999 38 -999
2010-04-07 06:55:13 51°13.661 2°55.959 126.4 -999 254 -999
2010-04-07 06:55:17 51°13.661 2°55.959 126.4 -999 43 -999
2010-04-07 06:55:23 51°13.661 2°55.959 126.4 -999 279 -999
2010-04-07 06:55:27 51°13.661 2°55.959 126.4 0.1 336 -999
2010-04-07 06:55:33 51°13.661 2°55.959 126.4 -999 248 -999
2010-04-07 06:55:37 51°13.661 2°55.959 126.4 -999 40 -999
2010-04-07 06:55:43 51°13.661 2°55.959 126.4 -999 192 -999
2010-04-07 06:55:47 51°13.661 2°55.959 126.4 -999 175 -999
2010-04-07 06:55:53 51°13.661 2°55.959 126.4 -999 196 -999
2010-04-07 06:55:57 51°13.661 2°55.959 126.4 -999 333 -999
2010-04-07 06:56:03 51°13.661 2°55.959 126.4 -999 118 -999
2010-04-07 06:56:07 51°13.661 2°55.959 126.4 -999 193 -999
2010-04-07 06:56:13 51°13.661 2°55.959 126.4 -999 303 -999
2010-04-07 06:56:17 51°13.661 2°55.959 126.4 0.1 295 -999
2010-04-07 06:56:23 51°13.661 2°55.959 126.4 -999 39 -999
2010-04-07 06:56:27 51°13.661 2°55.959 126.4 -999 57 -999
2010-04-07 06:56:33 51°13.661 2°55.96 126.5 -999 18 -999
2010-04-07 06:56:37 51°13.661 2°55.96 126.5 -999 342 -999
2010-04-07 06:56:43 51°13.661 2°55.96 126.5 -999 3 -999
2010-04-07 06:56:47 51°13.661 2°55.96 126.5 -999 236 -999
2010-04-07 06:56:53 51°13.661 2°55.959 126.5 -999 219 -999
2010-04-07 06:56:59 51°13.661 2°55.96 126.7 -999 320 -999
2010-04-07 06:57:03 51°13.661 2°55.96 126.8 -999 328 -999
2010-04-07 06:57:07 51°13.661 2°55.96 126.9 -999 168 -999
2010-04-07 06:57:13 51°13.661 2°55.959 126.9 -999 315 -999
2010-04-07 06:57:19 51°13.661 2°55.959 126.7 0.1 327 -999
2010-04-07 06:57:23 51°13.661 2°55.96 126.6 -999 326 -999
2010-04-07 06:57:27 51°13.661 2°55.96 126.5 -999 348 -999
2010-04-07 06:57:33 51°13.661 2°55.96 126.4 -999 223 -999
2010-04-07 06:57:37 51°13.661 2°55.96 126.4 -999 325 -999
2010-04-07 06:57:43 51°13.661 2°55.96 126.4 -999 74 -999
2010-04-07 06:57:47 51°13.661 2°55.96 126.3 -999 136 -999
2010-04-07 06:57:53 51°13.661 2°55.96 126.3 -999 7 -999
2010-04-07 06:57:57 51°13.661 2°55.96 126.3 -999 93 -999
2010-04-07 06:58:03 51°13.661 2°55.96 126.3 -999 346 -999
2010-04-07 06:58:07 51°13.661 2°55.96 126.3 -999 46 -999
2010-04-07 06:58:13 51°13.661 2°55.96 126.3 -999 299 -999
2010-04-07 06:58:17 51°13.661 2°55.96 126.3 -999 174 -999
2010-04-07 06:58:23 51°13.661 2°55.96 126.3 -999 144 -999
2010-04-07 06:58:27 51°13.661 2°55.96 126.3 -999 129 -999
2010-04-07 06:58:33 51°13.661 2°55.96 126.3 -999 312 -999
2010-04-07 06:58:37 51°13.661 2°55.96 126.3 -999 323 -999
2010-04-07 06:58:43 51°13.661 2°55.96 126.4 -999 331 -999
2010-04-07 06:58:49 51°13.661 2°55.96 126.4 -999 287 -999
2010-04-07 06:58:53 51°13.661 2°55.96 126.4 -999 242 -999
2010-04-07 06:58:57 51°13.661 2°55.96 126.4 -999 261 -999
2010-04-07 06:59:03 51°13.661 2°55.96 126.4 -999 44 -999
2010-04-07 06:59:09 51°13.661 2°55.96 126.4 0.1 291 -999
2010-04-07 06:59:13 51°13.661 2°55.96 126.4 -999 44 -999
2010-04-07 06:59:17 51°13.661 2°55.96 126.4 -999 22 -999
2010-04-07 06:59:23 51°13.661 2°55.96 126.4 0.1 282 -999
2010-04-07 06:59:27 51°13.661 2°55.96 126.4 -999 183 -999
2010-04-07 06:59:33 51°13.661 2°55.96 126.4 -999 185 -999
2010-04-07 06:59:39 51°13.661 2°55.961 126.4 -999 127 -999
2010-04-07 06:59:43 51°13.661 2°55.961 126.5 -999 113 -999
2010-04-07 06:59:47 51°13.661 2°55.961 126.5 0.1 86 -999
2010-04-07 06:59:53 51°13.661 2°55.96 126.6 -999 130 -999
2010-04-07 06:59:59 51°13.661 2°55.96 126.7 -999 176 -999
2010-04-07 07:00:03 51°13.661 2°55.96 126.8 0.1 170 -999
2010-04-07 07:00:07 51°13.661 2°55.96 126.8 -999 197 -999
2010-04-07 07:00:13 51°13.661 2°55.96 126.8 -999 214 -999
2010-04-07 07:00:17 51°13.662 2°55.96 126.8 -999 255 -999
2010-04-07 07:00:23 51°13.662 2°55.96 126.8 -999 23 -999
2010-04-07 07:00:27 51°13.662 2°55.96 126.6 -999 332 -999
2010-04-07 07:00:33 51°13.662 2°55.96 126.4 -999 242 -999
2010-04-07 07:00:37 51°13.662 2°55.96 126.4 -999 247 -999
2010-04-07 07:00:43 51°13.662 2°55.96 126.3 -999 211 -999
2010-04-07 07:00:47 51°13.662 2°55.961 126.3 -999 56 -999
2010-04-07 07:00:53 51°13.662 2°55.961 126.3 -999 44 -999
2010-04-07 07:00:57 51°13.662 2°55.96 126.3 -999 283 -999
2010-04-07 07:01:03 51°13.662 2°55.96 126.3 -999 273 -999
2010-04-07 07:01:07 51°13.662 2°55.96 126.3 -999 197 -999
2010-04-07 07:01:13 51°13.662 2°55.96 126.3 0.1 238 -999
2010-04-07 07:01:17 51°13.662 2°55.96 126.3 -999 -999 -999
2010-04-07 07:01:23 51°13.662 2°55.96 126.3 -999 180 -999
2010-04-07 07:01:29 51°13.662 2°55.96 126.3 -999 159 -999
2010-04-07 07:01:33 51°13.662 2°55.961 126.3 -999 89 -999
2010-04-07 07:01:38 51°13.662 2°55.96 126.3 -999 30 -999
2010-04-07 07:01:43 51°13.662 2°55.96 126.4 -999 351 -999
2010-04-07 07:01:49 51°13.662 2°55.96 126.4 -999 261 -999
2010-04-07 07:01:53 51°13.662 2°55.96 126.4 -999 185 -999
2010-04-07 07:01:57 51°13.661 2°55.96 126.4 -999 121 -999
2010-04-07 07:02:03 51°13.661 2°55.959 126.5 -999 342 -999
2010-04-07 07:02:07 51°13.661 2°55.959 126.5 -999 232 -999
2010-04-07 07:02:13 51°13.661 2°55.96 126.7 -999 66 -999
2010-04-07 07:02:19 51°13.662 2°55.959 126.8 -999 72 -999
2010-04-07 07:02:23 51°13.661 2°55.959 126.9 -999 214 -999
2010-04-07 07:02:27 51°13.661 2°55.959 126.9 -999 126 -999
2010-04-07 07:02:33 51°13.661 2°55.959 127 -999 233 -999
2010-04-07 07:02:37 51°13.661 2°55.959 127 -999 221 -999
2010-04-07 07:02:43 51°13.661 2°55.959 127 -999 308 -999
2010-04-07 07:02:47 51°13.662 2°55.959 127 -999 17 -999
2010-04-07 07:02:53 51°13.662 2°55.959 127 -999 98 -999
2010-04-07 07:02:58 51°13.662 2°55.959 127 -999 209 -999
2010-04-07 07:03:03 51°13.662 2°55.959 127.1 0.1 241 -999
2010-04-07 07:03:08 51°13.662 2°55.959 127.1 -999 240 -999
2010-04-07 07:03:13 51°13.662 2°55.959 127.1 -999 195 -999
2010-04-07 07:03:18 51°13.662 2°55.959 127.1 -999 127 -999
2010-04-07 07:03:23 51°13.662 2°55.96 127.1 0.1 96 -999
2010-04-07 07:03:28 51°13.662 2°55.96 127.1 -999 85 -999
2010-04-07 07:03:33 51°13.662 2°55.959 127.1 0.1 253 -999
2010-04-07 07:03:37 51°13.662 2°55.96 127.1 0.1 223 -999
2010-04-07 07:03:43 51°13.662 2°55.96 127.1 -999 91 -999
2010-04-07 07:51:54 51°13.662 2°55.961 123 -999 233 -999
2010-04-07 07:51:59 51°13.662 2°55.961 123 -999 238 -999
2010-04-07 07:52:04 51°13.662 2°55.961 123 -999 42 -999
2010-04-07 07:52:09 51°13.662 2°55.961 123 -999 219 -999
2010-04-07 07:52:14 51°13.662 2°55.961 123 0.1 205 -999
2010-04-07 07:52:19 51°13.662 2°55.961 123 0.1 217 -999
2010-04-07 07:52:24 51°13.662 2°55.961 123 -999 215 -999
2010-04-07 07:52:29 51°13.662 2°55.961 123 -999 227 -999
2010-04-07 07:52:34 51°13.662 2°55.961 123 -999 20 -999
2010-04-07 07:52:39 51°13.662 2°55.961 123 -999 23 -999
2010-04-07 07:52:44 51°13.662 2°55.961 123 -999 19 -999
2010-04-07 07:52:49 51°13.662 2°55.961 122.9 0.1 223 -999
2010-04-07 07:52:54 51°13.662 2°55.961 122.9 -999 272 -999
2010-04-07 07:52:59 51°13.662 2°55.961 122.9 0.1 24 -999
2010-04-07 07:53:04 51°13.662 2°55.961 122.9 0.1 25 -999
2010-04-07 07:53:09 51°13.662 2°55.961 122.9 -999 240 -999
2010-04-07 07:53:14 51°13.662 2°55.961 122.9 -999 30 -999
2010-04-07 07:53:19 51°13.662 2°55.961 122.9 -999 34 -999
2010-04-07 07:53:24 51°13.662 2°55.961 122.9 -999 18 -999
2010-04-07 07:53:29 51°13.662 2°55.961 122.9 0.1 349 -999
2010-04-07 07:53:34 51°13.662 2°55.961 122.9 -999 103 -999
2010-04-07 07:53:39 51°13.662 2°55.961 122.9 -999 229 -999
2010-04-07 07:53:44 51°13.662 2°55.962 122.8 -999 297 -999
2010-04-07 07:53:49 51°13.662 2°55.962 122.8 -999 245 -999
2010-04-07 07:53:54 51°13.662 2°55.962 122.8 -999 11 -999
2010-04-07 07:53:59 51°13.662 2°55.961 122.8 -999 224 -999
2010-04-07 07:54:04 51°13.662 2°55.961 122.8 -999 278 -999
2010-04-07 07:54:09 51°13.662 2°55.962 122.8 -999 8 -999
2010-04-07 07:54:14 51°13.662 2°55.961 122.8 -999 227 -999
2010-04-07 07:54:19 51°13.662 2°55.961 122.8 -999 263 -999
2010-04-07 07:54:24 51°13.662 2°55.962 122.8 0.1 31 -999
2010-04-07 07:54:29 51°13.662 2°55.962 122.8 0.1 42 -999
2010-04-07 07:54:34 51°13.662 2°55.961 122.8 -999 88 -999
2010-04-07 07:54:39 51°13.662 2°55.961 122.8 -999 72 -999
2010-04-07 07:54:44 51°13.662 2°55.961 122.8 -999 203 -999
2010-04-07 07:54:49 51°13.662 2°55.961 122.8 -999 25 -999
2010-04-07 07:54:54 51°13.662 2°55.961 122.8 -999 26 -999
2010-04-07 07:54:59 51°13.662 2°55.961 122.8 -999 17 -999
2010-04-07 07:55:04 51°13.662 2°55.961 122.8 -999 42 -999
2010-04-07 07:55:09 51°13.662 2°55.961 122.8 -999 28 -999
2010-04-07 07:55:14 51°13.662 2°55.961 122.8 -999 28 -999
2010-04-07 07:55:19 51°13.662 2°55.961 122.8 -999 237 -999
2010-04-07 07:55:24 51°13.661 2°55.961 122.8 -999 229 -999
2010-04-07 07:55:29 51°13.662 2°55.961 122.8 -999 8 -999
2010-04-07 07:55:34 51°13.661 2°55.961 122.8 -999 14 -999
2010-04-07 07:55:39 51°13.661 2°55.961 122.8 -999 220 -999
2010-04-07 07:55:44 51°13.661 2°55.961 122.8 -999 17 -999
2010-04-07 07:55:49 51°13.661 2°55.961 122.8 -999 227 -999
2010-04-07 07:55:54 51°13.661 2°55.961 122.8 -999 227 -999
2010-04-07 07:55:59 51°13.661 2°55.961 122.8 0.1 358 -999
2010-04-07 07:56:04 51°13.662 2°55.962 122.8 0.1 33 -999
2010-04-07 07:56:09 51°13.661 2°55.961 122.8 -999 148 -999
2010-04-07 07:56:14 51°13.661 2°55.961 122.8 0.1 217 -999
2010-04-07 07:56:19 51°13.661 2°55.961 122.8 -999 269 -999
2010-04-07 07:56:24 51°13.661 2°55.961 122.8 -999 62 -999
2010-04-07 07:56:29 51°13.661 2°55.961 122.7 -999 213 -999
2010-04-07 07:56:34 51°13.661 2°55.961 122.7 -999 237 -999
2010-04-07 07:56:39 51°13.662 2°55.961 122.7 -999 11 -999
2010-04-07 07:56:44 51°13.662 2°55.961 122.7 -999 31 -999
2010-04-07 07:56:49 51°13.662 2°55.961 122.7 -999 25 -999
2010-04-07 07:56:54 51°13.662 2°55.961 122.7 -999 182 -999
2010-04-07 07:56:59 51°13.662 2°55.961 122.7 0.1 31 -999
2010-04-07 07:57:04 51°13.662 2°55.961 122.7 0.1 43 -999
2010-04-07 07:57:09 51°13.662 2°55.961 122.7 0.1 38 -999
2010-04-07 07:57:14 51°13.662 2°55.961 122.7 -999 7 -999
2010-04-07 07:57:19 51°13.662 2°55.961 122.7 -999 44 -999
2010-04-07 07:57:24 51°13.662 2°55.961 122.7 -999 25 -999
2010-04-07 07:57:29 51°13.662 2°55.961 122.7 -999 18 -999
2010-04-07 07:57:34 51°13.662 2°55.961 122.7 -999 23 -999
2010-04-07 07:57:39 51°13.662 2°55.961 122.7 -999 22 -999
2010-04-07 07:57:44 51°13.662 2°55.961 122.7 -999 198 -999
2010-04-07 07:57:49 51°13.662 2°55.961 122.7 -999 220 -999
2010-04-07 07:57:54 51°13.662 2°55.961 122.7 -999 12 -999
2010-04-07 07:57:59 51°13.662 2°55.961 122.7 -999 25 -999
2010-04-07 07:58:04 51°13.662 2°55.961 122.7 -999 31 -999
2010-04-07 07:58:09 51°13.662 2°55.961 122.7 -999 30 -999
2010-04-07 07:58:14 51°13.662 2°55.961 122.7 -999 43 -999
2010-04-07 07:58:19 51°13.662 2°55.961 122.7 -999 30 -999
2010-04-07 07:58:24 51°13.662 2°55.961 122.7 0.1 40 -999
2010-04-07 07:58:29 51°13.662 2°55.961 122.7 -999 255 -999
2010-04-07 07:58:34 51°13.662 2°55.961 122.7 -999 243 -999
2010-04-07 07:58:39 51°13.662 2°55.961 122.7 -999 6 -999
2010-04-07 07:58:44 51°13.662 2°55.961 122.7 -999 4 -999
2010-04-07 07:58:49 51°13.662 2°55.961 122.7 0.1 220 -999
2010-04-07 07:58:54 51°13.662 2°55.961 122.7 0.1 216 -999
2010-04-07 07:58:59 51°13.662 2°55.961 122.7 -999 37 -999
2010-04-07 07:59:04 51°13.662 2°55.961 122.7 -999 49 -999
2010-04-07 07:59:09 51°13.662 2°55.961 122.7 -999 159 -999
2010-04-07 07:59:14 51°13.662 2°55.961 122.7 -999 245 -999
2010-04-07 07:59:19 51°13.662 2°55.961 122.7 -999 26 -999
2010-04-07 07:59:24 51°13.662 2°55.961 122.7 -999 345 -999
2010-04-07 07:59:29 51°13.662 2°55.961 122.7 -999 331 -999
2010-04-07 07:59:34 51°13.662 2°55.961 122.7 -999 222 -999
2010-04-07 07:59:39 51°13.662 2°55.961 122.7 -999 222 -999
2010-04-07 07:59:44 51°13.662 2°55.961 122.7 -999 325 -999
2010-04-07 07:59:49 51°13.662 2°55.961 122.7 0.1 26 -999
2010-04-07 07:59:54 51°13.662 2°55.961 122.7 -999 34 -999
2010-04-07 07:59:59 51°13.662 2°55.961 122.7 -999 233 -999
2010-04-07 08:00:04 51°13.662 2°55.961 122.7 -999 235 -999
2010-04-07 08:00:09 51°13.662 2°55.961 122.7 -999 206 -999
2010-04-07 08:00:14 51°13.662 2°55.961 122.7 -999 56 -999
2010-04-07 08:00:19 51°13.662 2°55.961 122.7 -999 262 -999
2010-04-07 08:00:24 51°13.662 2°55.961 122.7 -999 231 -999
2010-04-07 08:00:29 51°13.662 2°55.961 122.7 -999 262 -999
2010-04-07 08:00:34 51°13.662 2°55.961 122.7 -999 14 -999
2010-04-07 08:00:39 51°13.662 2°55.961 122.7 -999 350 -999
2010-04-07 08:00:44 51°13.662 2°55.961 122.7 -999 182 -999
2010-04-07 08:00:49 51°13.662 2°55.961 122.7 0.1 216 -999
2010-04-07 08:00:54 51°13.662 2°55.961 122.7 -999 231 -999
2010-04-07 08:00:59 51°13.662 2°55.961 122.7 -999 229 -999
2010-04-07 08:01:04 51°13.662 2°55.961 122.7 -999 224 -999
2010-04-07 08:01:09 51°13.662 2°55.961 122.7 0.1 210 -999
2010-04-07 08:01:14 51°13.662 2°55.961 122.7 -999 232 -999
2010-04-07 08:01:19 51°13.662 2°55.961 122.7 -999 23 -999
2010-04-07 08:01:24 51°13.662 2°55.961 122.7 -999 358 -999
2010-04-07 08:01:29 51°13.662 2°55.961 122.7 0.1 29 -999
2010-04-07 08:01:34 51°13.662 2°55.961 122.7 0.1 41 -999
2010-04-07 08:01:39 51°13.662 2°55.961 122.7 -999 31 -999
2010-04-07 08:01:44 51°13.662 2°55.961 122.7 -999 218 -999
2010-04-07 08:01:49 51°13.662 2°55.961 122.7 -999 65 -999
2010-04-07 08:01:54 51°13.662 2°55.961 122.7 -999 10 -999
2010-04-07 08:01:59 51°13.662 2°55.961 122.7 -999 258 -999
2010-04-07 08:02:04 51°13.662 2°55.961 122.7 -999 230 -999
2010-04-07 08:02:09 51°13.662 2°55.961 122.7 -999 227 -999
2010-04-07 08:02:14 51°13.662 2°55.961 122.7 -999 238 -999
2010-04-07 08:02:19 51°13.662 2°55.961 122.6 0.1 216 -999
2010-04-07 08:02:24 51°13.662 2°55.961 122.6 -999 26 -999
2010-04-07 08:02:29 51°13.662 2°55.961 122.6 -999 332 -999
2010-04-07 08:02:34 51°13.662 2°55.961 122.6 -999 50 -999
2010-04-07 08:02:39 51°13.662 2°55.961 122.6 -999 21 -999
2010-04-07 08:02:44 51°13.662 2°55.961 122.6 -999 277 -999
2010-04-07 08:02:49 51°13.662 2°55.961 122.6 -999 36 -999
2010-04-07 08:02:54 51°13.662 2°55.961 122.6 -999 64 -999
2010-04-07 08:02:59 51°13.662 2°55.961 122.6 -999 55 -999
2010-04-07 08:03:04 51°13.662 2°55.961 122.6 -999 28 -999
2010-04-07 08:03:09 51°13.662 2°55.961 122.6 -999 11 -999
2010-04-07 08:03:14 51°13.662 2°55.961 122.6 -999 21 -999
2010-04-07 08:03:19 51°13.662 2°55.961 122.5 -999 27 -999
2010-04-07 08:03:24 51°13.662 2°55.961 122.5 -999 180 -999
2010-04-07 08:03:29 51°13.662 2°55.961 122.5 -999 245 -999
2010-04-07 08:03:34 51°13.662 2°55.961 122.5 -999 32 -999
2010-04-07 08:03:39 51°13.662 2°55.961 122.5 -999 129 -999
2010-04-07 08:03:44 51°13.662 2°55.961 122.4 -999 216 -999
2010-04-07 08:03:49 51°13.662 2°55.961 122.4 -999 348 -999
2010-04-07 08:03:54 51°13.662 2°55.961 122.4 -999 12 -999
2010-04-07 08:03:59 51°13.662 2°55.961 122.4 -999 9 -999
2010-04-07 08:04:04 51°13.662 2°55.961 122.4 -999 43 -999
2010-04-07 08:04:09 51°13.662 2°55.961 122.4 -999 40 -999
2010-04-07 08:04:14 51°13.662 2°55.961 122.4 -999 357 -999
2010-04-07 08:04:19 51°13.662 2°55.961 122.4 -999 238 -999
2010-04-07 08:04:24 51°13.662 2°55.961 122.4 0.1 30 -999
2010-04-07 08:04:29 51°13.662 2°55.961 122.4 0.1 37 -999
2010-04-07 08:04:34 51°13.662 2°55.961 122.4 -999 33 -999
2010-04-07 08:04:39 51°13.662 2°55.961 122.3 -999 270 -999
2010-04-07 08:04:44 51°13.662 2°55.961 122.3 -999 49 -999
2010-04-07 08:04:49 51°13.662 2°55.961 122.3 -999 79 -999
2010-04-07 08:04:54 51°13.662 2°55.961 122.3 -999 256 -999
2010-04-07 08:04:59 51°13.662 2°55.961 122.3 -999 224 -999
2010-04-07 08:05:04 51°13.662 2°55.961 122.3 -999 222 -999
2010-04-07 08:05:09 51°13.662 2°55.961 122.3 -999 256 -999
2010-04-07 08:05:14 51°13.662 2°55.961 122.3 -999 5 -999
2010-04-07 08:05:19 51°13.662 2°55.961 122.3 -999 204 -999
2010-04-07 08:05:24 51°13.662 2°55.961 122.3 -999 217 -999
2010-04-07 08:05:29 51°13.662 2°55.961 122.3 -999 55 -999
2010-04-07 08:05:34 51°13.662 2°55.961 122.2 -999 73 -999
2010-04-07 08:05:39 51°13.662 2°55.961 122.2 -999 1 -999
2010-04-07 08:05:44 51°13.662 2°55.961 122.2 -999 39 -999
2010-04-07 08:05:49 51°13.662 2°55.961 122.2 -999 31 -999
2010-04-07 08:05:54 51°13.662 2°55.961 122.2 -999 33 -999
2010-04-07 08:05:59 51°13.662 2°55.96 122.2 -999 271 -999
2010-04-07 08:06:03 51°13.662 2°55.96 122.2 -999 229 -999
2010-04-07 08:06:09 51°13.662 2°55.96 122.2 -999 29 -999
2010-04-07 08:06:14 51°13.662 2°55.96 122.1 -999 56 -999
2010-04-07 08:06:18 51°13.662 2°55.96 122.1 0.1 224 -999
2010-04-07 08:06:24 51°13.662 2°55.96 122.1 -999 4 -999
2010-04-07 08:06:29 51°13.662 2°55.96 122.1 -999 260 -999
2010-04-07 08:06:35 51°13.662 2°55.961 122.1 -999 12 -999
2010-04-07 08:06:39 51°13.661 2°55.961 122.1 0.1 9 -999
2010-04-07 08:06:44 51°13.661 2°55.961 122.1 -999 279 -999
2010-04-07 08:06:49 51°13.661 2°55.961 122.1 0.1 214 -999
2010-04-07 08:06:54 51°13.661 2°55.961 122.1 0.1 206 -999
2010-04-07 08:06:58 51°13.661 2°55.961 122.1 -999 225 -999
2010-04-07 08:07:04 51°13.661 2°55.962 122 0.1 39 -999
2010-04-07 08:07:09 51°13.661 2°55.962 122 -999 7 -999
2010-04-07 08:07:15 51°13.66 2°55.962 122 -999 343 -999
2010-04-07 08:07:19 51°13.66 2°55.962 122 -999 219 -999
2010-04-07 08:07:24 51°13.66 2°55.962 122 -999 347 -999
2010-04-07 08:07:28 51°13.66 2°55.962 122 -999 230 -999
2010-04-07 08:07:34 51°13.66 2°55.962 122 -999 231 -999
2010-04-07 08:07:39 51°13.66 2°55.962 122 -999 324 -999
2010-04-07 08:07:44 51°13.66 2°55.962 122 0.1 35 -999
2010-04-07 08:07:48 51°13.66 2°55.962 122 -999 34 -999
2010-04-07 08:07:54 51°13.66 2°55.962 122 -999 313 -999
2010-04-07 08:07:59 51°13.66 2°55.962 122 -999 20 -999
2010-04-07 08:08:04 51°13.66 2°55.962 122 -999 4 -999
2010-04-07 08:08:08 51°13.66 2°55.962 122 -999 47 -999
2010-04-07 08:08:15 51°13.66 2°55.962 122 -999 253 -999
2010-04-07 08:08:19 51°13.66 2°55.962 122 -999 45 -999
2010-04-07 08:08:24 51°13.66 2°55.961 122 0.1 33 -999
2010-04-07 08:08:29 51°13.66 2°55.961 122 -999 20 -999
2010-04-07 08:08:34 51°13.661 2°55.961 122 -999 35 -999
2010-04-07 08:08:39 51°13.661 2°55.961 121.9 -999 51 -999
2010-04-07 08:08:44 51°13.661 2°55.961 121.9 -999 20 -999
2010-04-07 08:08:49 51°13.661 2°55.961 121.9 -999 -999 -999
2010-04-07 08:08:55 51°13.661 2°55.961 121.9 0.1 54 -999
2010-04-07 08:08:59 51°13.661 2°55.961 121.9 -999 26 -999
2010-04-07 08:09:04 51°13.661 2°55.961 121.9 -999 223 -999
2010-04-07 08:09:09 51°13.661 2°55.961 121.9 0.1 230 -999
2010-04-07 08:09:14 51°13.661 2°55.961 121.9 -999 208 -999
2010-04-07 08:09:19 51°13.661 2°55.961 121.9 -999 213 -999
2010-04-07 08:09:24 51°13.661 2°55.961 121.8 -999 193 -999
2010-04-07 08:09:29 51°13.661 2°55.961 121.8 -999 168 -999
2010-04-07 08:09:34 51°13.661 2°55.961 121.8 -999 39 -999
2010-04-07 08:09:39 51°13.661 2°55.96 121.8 -999 192 -999
2010-04-07 08:09:44 51°13.661 2°55.96 121.8 -999 274 -999
2010-04-07 08:09:49 51°13.661 2°55.961 121.8 -999 25 -999
2010-04-07 08:09:54 51°13.661 2°55.961 121.8 -999 40 -999
2010-04-07 08:09:59 51°13.661 2°55.961 121.8 -999 45 -999
2010-04-07 08:10:04 51°13.661 2°55.961 121.8 0.1 20 -999
2010-04-07 08:10:09 51°13.661 2°55.961 121.7 0.1 31 -999
2010-04-07 08:10:14 51°13.661 2°55.961 121.7 -999 25 -999
2010-04-07 08:10:20 51°13.661 2°55.961 121.7 -999 36 -999
2010-04-07 08:10:25 51°13.661 2°55.961 121.7 -999 23 -999
2010-04-07 08:10:29 51°13.661 2°55.96 121.7 -999 206 -999
2010-04-07 08:10:35 51°13.661 2°55.961 121.7 -999 213 -999
2010-04-07 08:10:40 51°13.661 2°55.961 121.7 -999 12 -999
2010-04-07 08:10:45 51°13.661 2°55.961 121.7 0.1 24 -999
2010-04-07 08:10:49 51°13.661 2°55.961 121.7 0.1 32 -999
2010-04-07 08:10:55 51°13.661 2°55.96 121.7 -999 233 -999
2010-04-07 08:10:59 51°13.661 2°55.96 121.6 0.1 240 -999
2010-04-07 08:11:04 51°13.661 2°55.96 121.6 -999 6 -999
2010-04-07 08:11:09 51°13.661 2°55.96 121.6 -999 231 -999
2010-04-07 08:11:15 51°13.662 2°55.96 121.6 -999 344 -999
2010-04-07 08:11:19 51°13.662 2°55.96 121.6 0.1 28 -999
2010-04-07 08:11:24 51°13.662 2°55.96 121.6 -999 43 -999
2010-04-07 08:11:29 51°13.662 2°55.96 121.6 0.1 39 -999
2010-04-07 08:11:34 51°13.662 2°55.96 121.6 -999 289 -999
2010-04-07 08:11:39 51°13.662 2°55.96 121.6 -999 247 -999
2010-04-07 08:11:44 51°13.662 2°55.96 121.6 -999 42 -999
2010-04-07 08:11:49 51°13.662 2°55.96 121.6 -999 229 -999
2010-04-07 08:11:54 51°13.662 2°55.96 121.6 -999 359 -999
2010-04-07 08:11:59 51°13.662 2°55.96 121.6 -999 36 -999
2010-04-07 08:12:04 51°13.662 2°55.96 121.6 -999 67 -999
2010-04-07 08:12:09 51°13.662 2°55.96 121.6 -999 227 -999
2010-04-07 08:12:14 51°13.662 2°55.96 121.6 -999 260 -999
2010-04-07 08:12:19 51°13.662 2°55.96 121.6 -999 236 -999
2010-04-07 08:12:24 51°13.662 2°55.96 121.6 -999 212 -999
2010-04-07 08:12:29 51°13.662 2°55.96 121.5 -999 246 -999
2010-04-07 08:12:34 51°13.662 2°55.961 121.5 -999 358 -999
2010-04-07 08:12:39 51°13.662 2°55.96 121.5 -999 200 -999
2010-04-07 08:12:44 51°13.662 2°55.961 121.5 -999 14 -999
2010-04-07 08:12:49 51°13.661 2°55.961 121.5 -999 280 -999
2010-04-07 08:12:54 51°13.661 2°55.961 121.5 0.1 289 -999
2010-04-07 08:12:59 51°13.661 2°55.96 121.6 0.1 295 -999
2010-04-07 08:13:04 51°13.662 2°55.96 121.7 0.1 304 -999
2010-04-07 08:13:09 51°13.662 2°55.96 121.8 0.1 297 -999
2010-04-07 08:13:14 51°13.662 2°55.96 121.9 0.1 300 -999
2010-04-07 08:13:19 51°13.662 2°55.96 121.9 0.1 309 -999
2010-04-07 08:13:24 51°13.662 2°55.96 121.9 0.1 313 -999
2010-04-07 08:13:29 51°13.662 2°55.96 122 0.1 291 -999
2010-04-07 08:13:34 51°13.662 2°55.96 122 -999 265 -999
2010-04-07 08:13:39 51°13.662 2°55.96 122.1 -999 149 -999
2010-04-07 08:13:44 51°13.662 2°55.96 122.4 -999 126 -999
2010-04-07 08:13:49 51°13.662 2°55.96 123.1 -999 291 -999
2010-04-07 08:13:54 51°13.662 2°55.96 123.5 0.1 17 -999
2010-04-07 08:13:59 51°13.662 2°55.96 123.9 0.1 176 -999
2010-04-07 08:14:04 51°13.662 2°55.96 124.6 0.1 48 -999
2010-04-07 08:14:09 51°13.662 2°55.96 125 -999 79 -999
2010-04-07 08:14:14 51°13.662 2°55.96 125.2 0.1 87 -999
2010-04-07 08:14:19 51°13.662 2°55.96 125.6 -999 67 -999
2010-04-07 08:14:24 51°13.662 2°55.96 125.8 0.1 275 -999
2010-04-07 08:14:29 51°13.662 2°55.96 125.8 -999 289 -999
2010-04-07 08:14:34 51°13.662 2°55.961 126 0.1 17 -999
2010-04-07 08:14:39 51°13.662 2°55.961 126.1 -999 20 -999
2010-04-07 08:14:44 51°13.662 2°55.961 126.1 -999 23 -999
2010-04-07 08:14:49 51°13.662 2°55.961 126.1 -999 37 -999
2010-04-07 08:14:54 51°13.662 2°55.961 126.1 -999 23 -999
2010-04-07 08:14:59 51°13.662 2°55.961 126.1 -999 7 -999
2010-04-07 08:15:04 51°13.662 2°55.961 126.1 -999 233 -999
2010-04-07 08:15:09 51°13.662 2°55.961 126.1 0.1 37 -999
2010-04-07 08:15:14 51°13.662 2°55.961 126.1 -999 26 -999
2010-04-07 08:15:19 51°13.662 2°55.961 126.1 -999 25 -999
2010-04-07 08:15:24 51°13.662 2°55.961 126.1 -999 54 -999
2010-04-07 08:15:29 51°13.662 2°55.961 126.1 -999 323 -999
2010-04-07 08:15:34 51°13.662 2°55.961 126.1 -999 18 -999
2010-04-07 08:15:39 51°13.663 2°55.961 126.1 0.1 19 -999
2010-04-07 08:15:45 51°13.662 2°55.961 126.1 -999 285 -999
2010-04-07 08:15:49 51°13.662 2°55.961 126.1 -999 169 -999
2010-04-07 08:15:54 51°13.662 2°55.961 126.1 -999 194 -999
2010-04-07 08:15:59 51°13.662 2°55.961 126.1 -999 211 -999
2010-04-07 08:16:04 51°13.662 2°55.961 126.1 -999 14 -999
2010-04-07 08:16:09 51°13.662 2°55.962 126.1 -999 24 -999
2010-04-07 08:16:15 51°13.662 2°55.962 126.1 -999 13 -999
2010-04-07 08:16:19 51°13.662 2°55.962 126.1 -999 333 -999
2010-04-07 08:16:24 51°13.662 2°55.962 126.1 -999 21 -999
2010-04-07 08:16:29 51°13.662 2°55.962 126.1 -999 37 -999
2010-04-07 08:16:34 51°13.662 2°55.962 126.1 -999 184 -999
2010-04-07 08:16:39 51°13.662 2°55.962 126.1 -999 27 -999
2010-04-07 08:16:44 51°13.662 2°55.962 126.1 -999 296 -999
2010-04-07 08:16:49 51°13.662 2°55.962 126.1 -999 29 -999
2010-04-07 08:16:54 51°13.662 2°55.962 126.1 0.1 29 -999
2010-04-07 08:16:59 51°13.661 2°55.962 126.1 0.1 209 -999
2010-04-07 08:17:04 51°13.661 2°55.962 126.1 -999 214 -999
2010-04-07 08:17:09 51°13.661 2°55.962 126.1 -999 223 -999
2010-04-07 08:17:14 51°13.661 2°55.962 126.1 -999 292 -999
2010-04-07 08:17:19 51°13.661 2°55.962 126.1 -999 216 -999
2010-04-07 08:17:24 51°13.661 2°55.962 126.1 -999 234 -999
2010-04-07 08:17:29 51°13.661 2°55.962 126.1 -999 327 -999
2010-04-07 08:17:34 51°13.66 2°55.962 126.1 -999 212 -999
2010-04-07 08:17:39 51°13.66 2°55.963 126.1 -999 18 -999
2010-04-07 08:17:44 51°13.66 2°55.963 126.1 -999 244 -999
2010-04-07 08:17:49 51°13.66 2°55.963 126.1 -999 225 -999
2010-04-07 08:17:54 51°13.66 2°55.963 126.1 -999 301 -999
2010-04-07 08:17:59 51°13.66 2°55.962 126.1 -999 220 -999
2010-04-07 08:18:05 51°13.66 2°55.963 126.1 -999 6 -999
2010-04-07 08:18:09 51°13.661 2°55.963 126.1 0.1 30 -999
2010-04-07 08:18:14 51°13.661 2°55.963 126.1 0.1 33 -999
2010-04-07 08:18:19 51°13.661 2°55.962 126.1 0.1 30 -999
2010-04-07 08:18:25 51°13.661 2°55.962 126.1 -999 32 -999
2010-04-07 08:18:29 51°13.661 2°55.96 126.1 -999 38 -999
2010-04-07 08:18:34 51°13.662 2°55.955 126.1 -999 195 -999
2010-04-07 08:18:39 51°13.663 2°55.952 126.1 -999 6 -999
2010-04-07 08:18:44 51°13.663 2°55.952 126.1 -999 273 -999
2010-04-07 08:18:49 51°13.662 2°55.954 126.1 -999 19 -999
2010-04-07 08:18:54 51°13.662 2°55.955 126.1 -999 13 -999
2010-04-07 08:18:59 51°13.662 2°55.956 126.1 0.1 33 -999
2010-04-07 08:19:04 51°13.662 2°55.956 126.1 0.1 27 -999
2010-04-07 08:19:09 51°13.662 2°55.956 126.1 -999 267 -999
2010-04-07 08:19:14 51°13.662 2°55.956 126.1 -999 28 -999
2010-04-07 08:19:19 51°13.662 2°55.956 126.1 -999 27 -999
2010-04-07 08:19:24 51°13.662 2°55.956 126.1 -999 19 -999
2010-04-07 08:19:29 51°13.662 2°55.956 126.1 -999 47 -999
2010-04-07 08:19:34 51°13.662 2°55.956 126.1 -999 34 -999
2010-04-07 08:19:39 51°13.662 2°55.957 126.1 -999 187 -999
2010-04-07 08:19:44 51°13.662 2°55.957 126.1 -999 29 -999
2010-04-07 08:19:49 51°13.662 2°55.958 126.1 -999 19 -999
2010-04-07 08:19:54 51°13.662 2°55.958 126.1 0.1 26 -999
2010-04-07 08:19:59 51°13.662 2°55.958 126.1 0.1 28 -999
2010-04-07 08:20:04 51°13.662 2°55.958 126.1 -999 214 -999
2010-04-07 08:20:09 51°13.662 2°55.958 126.1 0.1 222 -999
2010-04-07 08:20:14 51°13.661 2°55.958 126.1 -999 223 -999
2010-04-07 08:20:19 51°13.661 2°55.959 126.1 -999 220 -999
2010-04-07 08:20:24 51°13.661 2°55.959 126.1 0.1 228 -999
2010-04-07 08:20:29 51°13.661 2°55.959 126.1 -999 290 -999
2010-04-07 08:20:34 51°13.661 2°55.959 126.1 -999 204 -999
2010-04-07 08:20:39 51°13.661 2°55.959 126.1 0.1 200 -999
2010-04-07 08:20:44 51°13.661 2°55.959 126.1 0.1 221 -999
2010-04-07 08:20:49 51°13.661 2°55.959 126.1 -999 247 -999
2010-04-07 08:20:54 51°13.661 2°55.96 126.1 -999 29 -999
2010-04-07 08:21:00 51°13.661 2°55.96 126.1 -999 199 -999
2010-04-07 08:21:04 51°13.661 2°55.96 126.1 -999 194 -999
2010-04-07 08:21:09 51°13.661 2°55.96 126.1 -999 205 -999
2010-04-07 08:21:14 51°13.661 2°55.959 126.1 -999 217 -999
2010-04-07 08:21:19 51°13.661 2°55.959 126.1 -999 240 -999
2010-04-07 08:21:24 51°13.661 2°55.959 126.1 -999 278 -999
2010-04-07 08:21:29 51°13.661 2°55.959 126.1 -999 251 -999
2010-04-07 08:21:34 51°13.662 2°55.959 126.1 -999 338 -999
2010-04-07 08:21:39 51°13.662 2°55.959 126.1 -999 58 -999
2010-04-07 08:21:44 51°13.662 2°55.959 126.1 -999 223 -999
2010-04-07 08:21:49 51°13.662 2°55.959 126.1 -999 27 -999
2010-04-07 08:21:54 51°13.662 2°55.96 126.1 0.1 19 -999
2010-04-07 08:21:59 51°13.662 2°55.96 126.1 0.1 34 -999
2010-04-07 08:22:04 51°13.662 2°55.959 126.1 -999 315 -999
2010-04-07 08:22:09 51°13.662 2°55.96 126.1 -999 23 -999
2010-04-07 08:22:14 51°13.662 2°55.96 126.1 -999 352 -999
2010-04-07 08:22:19 51°13.662 2°55.959 126.1 -999 239 -999
2010-04-07 08:22:24 51°13.662 2°55.959 126 -999 248 -999
2010-04-07 08:22:29 51°13.662 2°55.96 126 0.1 26 -999
2010-04-07 08:22:34 51°13.662 2°55.96 126 0.1 38 -999
2010-04-07 08:22:39 51°13.662 2°55.96 126 -999 19 -999
2010-04-07 08:22:44 51°13.662 2°55.96 126 -999 21 -999
2010-04-07 08:22:49 51°13.662 2°55.959 126 -999 206 -999
2010-04-07 08:22:54 51°13.662 2°55.959 126 0.1 220 -999
2010-04-07 08:22:59 51°13.662 2°55.959 126 -999 348 -999
2010-04-07 08:23:04 51°13.662 2°55.959 126 -999 3 -999
2010-04-07 08:23:09 51°13.662 2°55.959 126 -999 200 -999
2010-04-07 08:23:14 51°13.662 2°55.959 126 -999 221 -999
2010-04-07 08:23:19 51°13.662 2°55.959 126 -999 231 -999
2010-04-07 08:23:24 51°13.662 2°55.959 126 -999 274 -999
2010-04-07 08:23:29 51°13.662 2°55.959 126 -999 246 -999
2010-04-07 08:23:34 51°13.662 2°55.959 126 -999 39 -999
2010-04-07 08:23:39 51°13.662 2°55.96 126 -999 29 -999
2010-04-07 08:23:44 51°13.662 2°55.96 126 -999 55 -999
2010-04-07 08:23:49 51°13.662 2°55.96 126 -999 202 -999
2010-04-07 08:23:54 51°13.662 2°55.96 126 -999 63 -999
2010-04-07 08:23:59 51°13.662 2°55.96 126 0.1 23 -999
2010-04-07 08:24:04 51°13.662 2°55.96 126 0.1 17 -999
2010-04-07 08:24:09 51°13.662 2°55.959 126 -999 92 -999
2010-04-07 08:24:14 51°13.662 2°55.959 126 -999 167 -999
2010-04-07 08:24:19 51°13.662 2°55.959 126 -999 179 -999
2010-04-07 08:24:24 51°13.662 2°55.959 126 -999 176 -999
2010-04-07 08:24:29 51°13.661 2°55.959 126 -999 230 -999
2010-04-07 08:24:34 51°13.66 2°55.961 126 0.1 252 -999
2010-04-07 08:24:39 51°13.659 2°55.962 126 0.1 337 -999
2010-04-07 08:24:44 51°13.659 2°55.962 126 0.1 126 -999
2010-04-07 08:24:49 51°13.659 2°55.962 126 0.1 159 -999
2010-04-07 08:24:54 51°13.659 2°55.962 126 -999 143 -999
2010-04-07 08:24:59 51°13.659 2°55.962 126 -999 205 -999
2010-04-07 08:25:04 51°13.659 2°55.962 126 0.2 141 -999
2010-04-07 08:25:09 51°13.659 2°55.962 126 0.3 140 -999
2010-04-07 08:25:14 51°13.659 2°55.961 126 0.2 136 -999
2010-04-07 08:25:19 51°13.66 2°55.961 126 0.1 134 -999
2010-04-07 08:25:24 51°13.66 2°55.961 126 -999 129 -999
2010-04-07 08:25:29 51°13.66 2°55.96 126 0.1 328 -999
2010-04-07 08:25:34 51°13.66 2°55.96 126.1 -999 291 -999
2010-04-07 08:25:39 51°13.66 2°55.961 126.1 0.1 99 -999
2010-04-07 08:25:44 51°13.66 2°55.961 126.1 0.1 124 -999
2010-04-07 08:25:49 51°13.66 2°55.961 126.1 0.2 130 -999
2010-04-07 08:25:54 51°13.661 2°55.96 126.1 0.1 329 -999
2010-04-07 08:25:59 51°13.661 2°55.96 126.1 0.2 319 -999
2010-04-07 08:26:04 51°13.661 2°55.96 126.1 0.2 329 -999
2010-04-07 08:26:09 51°13.66 2°55.961 126.1 -999 23 -999
2010-04-07 08:26:14 51°13.66 2°55.961 126.1 0.1 160 -999
2010-04-07 08:26:19 51°13.66 2°55.961 126.1 0.1 152 -999
2010-04-07 08:26:24 51°13.66 2°55.961 126.1 0.1 124 -999
2010-04-07 08:26:29 51°13.66 2°55.962 126.1 0.1 133 -999
2010-04-07 08:26:34 51°13.66 2°55.961 126.1 -999 117 -999
2010-04-07 08:26:39 51°13.66 2°55.961 126.1 0.1 350 -999
2010-04-07 08:26:44 51°13.661 2°55.961 126.1 0.2 357 -999
2010-04-07 08:26:49 51°13.66 2°55.961 126.1 0.1 319 -999
2010-04-07 08:26:54 51°13.66 2°55.961 126.1 0.1 164 -999
2010-04-07 08:26:59 51°13.661 2°55.96 126.1 -999 341 -999
2010-04-07 08:27:04 51°13.661 2°55.96 126.1 -999 20 -999
2010-04-07 08:27:09 51°13.661 2°55.96 126.1 0.1 4 -999
2010-04-07 08:27:14 51°13.661 2°55.96 126.1 0.2 130 -999
2010-04-07 08:27:19 51°13.662 2°55.96 126.1 -999 129 -999
2010-04-07 08:27:24 51°13.662 2°55.959 126.1 -999 287 -999
2010-04-07 08:27:29 51°13.662 2°55.959 126.1 0.1 119 -999
2010-04-07 08:27:34 51°13.662 2°55.959 126.1 0.1 97 -999
2010-04-07 08:27:39 51°13.662 2°55.959 126.1 0.1 128 -999
2010-04-07 08:27:44 51°13.662 2°55.959 126.1 0.2 135 -999
2010-04-07 08:27:49 51°13.662 2°55.959 126.1 0.1 159 -999
2010-04-07 08:27:54 51°13.662 2°55.959 126.1 0.1 125 -999
2010-04-07 08:27:59 51°13.663 2°55.958 126 -999 19 -999
2010-04-07 08:28:04 51°13.663 2°55.958 126 -999 268 -999
2010-04-07 08:28:09 51°13.662 2°55.958 126 0.2 141 -999
2010-04-07 08:28:14 51°13.663 2°55.959 126 0.2 128 -999
2010-04-07 08:28:19 51°13.663 2°55.958 126 -999 5 -999
2010-04-07 08:28:25 51°13.663 2°55.958 126 -999 24 -999
2010-04-07 08:28:29 51°13.663 2°55.959 126 0.1 107 -999
2010-04-07 08:28:34 51°13.663 2°55.959 126 0.1 93 -999
2010-04-07 08:28:39 51°13.663 2°55.958 126 -999 87 -999
2010-04-07 08:28:44 51°13.664 2°55.958 126 -999 69 -999
2010-04-07 08:28:49 51°13.664 2°55.958 126 -999 338 -999
2010-04-07 08:28:54 51°13.664 2°55.958 126 -999 123 -999
2010-04-07 08:28:59 51°13.664 2°55.958 126 0.1 128 -999
2010-04-07 08:29:04 51°13.664 2°55.958 126 0.1 92 -999
2010-04-07 08:29:09 51°13.664 2°55.958 126 0.1 15 -999
2010-04-07 08:29:14 51°13.664 2°55.958 126 0.1 329 -999
2010-04-07 08:29:19 51°13.664 2°55.958 126 0.1 315 -999
2010-04-07 08:29:24 51°13.664 2°55.958 126 -999 335 -999
2010-04-07 08:29:29 51°13.664 2°55.958 126 0.1 167 -999
2010-04-07 08:29:34 51°13.663 2°55.958 126 0.1 160 -999
2010-04-07 08:29:39 51°13.663 2°55.958 126 0.1 151 -999
2010-04-07 08:29:44 51°13.663 2°55.958 126 0.1 130 -999
2010-04-07 08:29:49 51°13.663 2°55.958 126 0.1 139 -999
2010-04-07 08:29:54 51°13.663 2°55.958 126 0.1 114 -999
2010-04-07 08:29:59 51°13.663 2°55.959 126 0.1 89 -999
2010-04-07 08:30:04 51°13.663 2°55.959 126 -999 53 -999
2010-04-07 08:30:09 51°13.663 2°55.959 126 0.1 145 -999
2010-04-07 08:30:14 51°13.663 2°55.958 126 0.1 316 -999
2010-04-07 08:30:19 51°13.663 2°55.958 126 0.3 320 -999
2010-04-07 08:30:24 51°13.663 2°55.958 126 0.2 305 -999
2010-04-07 08:30:29 51°13.663 2°55.958 126.1 0.1 302 -999
2010-04-07 08:30:34 51°13.663 2°55.958 126.1 0.1 323 -999
2010-04-07 08:30:39 51°13.664 2°55.958 126.1 0.1 323 -999
2010-04-07 08:30:44 51°13.664 2°55.958 126.1 -999 311 -999
2010-04-07 08:30:49 51°13.664 2°55.957 126.1 0.1 305 -999
2010-04-07 08:30:54 51°13.665 2°55.957 126.1 0.1 322 -999
2010-04-07 08:30:59 51°13.665 2°55.957 126.1 0.1 7 -999
2010-04-07 08:31:05 51°13.665 2°55.956 126.1 0.1 336 -999
2010-04-07 08:31:09 51°13.665 2°55.956 126.2 -999 352 -999
2010-04-07 08:31:14 51°13.665 2°55.956 126.2 -999 246 -999
2010-04-07 08:31:20 51°13.665 2°55.956 126.2 0.1 153 -999
2010-04-07 08:31:24 51°13.665 2°55.956 126.2 0.1 185 -999
2010-04-07 08:31:29 51°13.665 2°55.956 126.2 0.1 160 -999
2010-04-07 08:31:34 51°13.665 2°55.956 126.2 -999 126 -999
2010-04-07 08:31:39 51°13.666 2°55.956 126.1 -999 23 -999
2010-04-07 08:31:44 51°13.666 2°55.955 126.1 -999 244 -999
2010-04-07 08:31:49 51°13.666 2°55.955 126.1 -999 310 -999
2010-04-07 08:31:54 51°13.666 2°55.955 126.1 0.1 282 -999
2010-04-07 08:31:59 51°13.666 2°55.955 126.1 0.1 285 -999
2010-04-07 08:32:04 51°13.666 2°55.955 126.1 0.1 290 -999
2010-04-07 08:32:09 51°13.667 2°55.956 126.1 -999 20 -999
2010-04-07 08:32:14 51°13.668 2°55.958 126.2 0.1 168 -999
2010-04-07 08:32:19 51°13.668 2°55.959 126.3 0.3 145 -999
2010-04-07 08:32:24 51°13.668 2°55.959 126.3 0.2 122 -999
2010-04-07 08:32:29 51°13.669 2°55.959 126.3 0.1 132 -999
2010-04-07 08:32:34 51°13.669 2°55.959 126.3 -999 289 -999
2010-04-07 08:32:39 51°13.67 2°55.959 126.3 0.1 300 -999
2010-04-07 08:32:44 51°13.67 2°55.959 126.3 0.1 307 -999
2010-04-07 08:32:49 51°13.67 2°55.959 126.3 0.2 110 -999
2010-04-07 08:32:54 51°13.67 2°55.96 126.3 0.2 94 -999
2010-04-07 08:32:59 51°13.671 2°55.96 126.3 0.2 56 -999
2010-04-07 08:33:04 51°13.671 2°55.959 126.3 -999 42 -999
2010-04-07 08:33:09 51°13.671 2°55.959 126.3 0.1 330 -999
2010-04-07 08:33:14 51°13.671 2°55.959 126.4 0.1 16 -999
2010-04-07 08:33:19 51°13.671 2°55.959 126.4 0.1 29 -999
2010-04-07 08:33:24 51°13.671 2°55.959 126.4 0.1 295 -999
2010-04-07 08:33:29 51°13.671 2°55.959 126.4 0.1 278 -999
2010-04-07 08:33:34 51°13.67 2°55.96 126.4 0.2 140 -999
2010-04-07 08:33:39 51°13.67 2°55.96 126.4 0.3 137 -999
2010-04-07 08:33:44 51°13.67 2°55.959 126.4 0.1 271 -999
2010-04-07 08:33:49 51°13.67 2°55.959 126.4 0.2 181 -999
2010-04-07 08:33:54 51°13.67 2°55.959 126.4 0.1 43 -999
2010-04-07 08:33:59 51°13.67 2°55.959 126.4 0.2 311 -999
2010-04-07 08:34:04 51°13.67 2°55.959 126.4 0.1 249 -999
2010-04-07 08:34:09 51°13.669 2°55.959 126.4 -999 24 -999
2010-04-07 08:34:14 51°13.669 2°55.959 126.4 0.1 261 -999
2010-04-07 08:34:19 51°13.669 2°55.959 126.4 0.1 282 -999
2010-04-07 08:34:24 51°13.668 2°55.96 126.4 0.1 270 -999
2010-04-07 08:34:29 51°13.668 2°55.96 126.4 0.2 152 -999
2010-04-07 08:34:34 51°13.668 2°55.96 126.4 0.1 116 -999
2010-04-07 08:34:39 51°13.668 2°55.96 126.4 0.1 145 -999
2010-04-07 08:34:44 51°13.667 2°55.96 126.4 0.1 160 -999
2010-04-07 08:34:49 51°13.667 2°55.96 126.4 0.1 184 -999
2010-04-07 08:34:54 51°13.667 2°55.96 126.4 0.2 165 -999
2010-04-07 08:34:59 51°13.667 2°55.96 126.4 0.2 181 -999
2010-04-07 08:35:04 51°13.667 2°55.96 126.4 0.1 219 -999
2010-04-07 08:35:09 51°13.667 2°55.961 126.4 -999 66 -999
2010-04-07 08:35:14 51°13.666 2°55.961 126.4 0.1 102 -999
2010-04-07 08:35:19 51°13.666 2°55.961 126.4 -999 77 -999
2010-04-07 08:35:24 51°13.666 2°55.961 126.4 -999 69 -999
2010-04-07 08:35:29 51°13.666 2°55.961 126.4 -999 85 -999
2010-04-07 08:35:34 51°13.665 2°55.961 126.4 -999 217 -999
2010-04-07 08:35:39 51°13.665 2°55.962 126.4 0.1 108 -999
2010-04-07 08:35:44 51°13.665 2°55.961 126.4 0.1 189 -999
2010-04-07 08:35:49 51°13.665 2°55.961 126.4 0.2 14 -999
2010-04-07 08:35:54 51°13.665 2°55.961 126.4 0.1 338 -999
2010-04-07 08:35:59 51°13.665 2°55.961 126.4 0.1 296 -999
2010-04-07 08:36:04 51°13.665 2°55.961 126.4 -999 59 -999
2010-04-07 08:36:09 51°13.665 2°55.961 126.4 0.1 208 -999
2010-04-07 08:36:14 51°13.665 2°55.961 126.4 0.1 253 -999
2010-04-07 08:36:19 51°13.664 2°55.961 126.4 0.1 243 -999
2010-04-07 08:36:24 51°13.664 2°55.962 126.4 0.1 83 -999
2010-04-07 08:36:29 51°13.664 2°55.962 126.4 0.1 16 -999
2010-04-07 08:36:34 51°13.664 2°55.962 126.4 0.1 172 -999
2010-04-07 08:36:39 51°13.664 2°55.962 126.4 0.2 163 -999
2010-04-07 08:36:44 51°13.664 2°55.962 126.4 0.1 159 -999
2010-04-07 08:36:49 51°13.664 2°55.961 126.4 0.1 144 -999
2010-04-07 08:36:54 51°13.664 2°55.961 126.4 0.1 179 -999
2010-04-07 08:36:59 51°13.665 2°55.961 126.4 0.1 121 -999
2010-04-07 08:37:04 51°13.665 2°55.961 126.4 0.1 183 -999
2010-04-07 08:37:09 51°13.665 2°55.961 126.4 -999 158 -999
2010-04-07 08:37:14 51°13.665 2°55.961 126.4 0.1 178 -999
2010-04-07 08:37:19 51°13.665 2°55.961 126.4 0.1 153 -999
2010-04-07 08:37:24 51°13.665 2°55.961 126.4 0.1 134 -999
2010-04-07 08:37:29 51°13.665 2°55.961 126.4 0.2 174 -999
2010-04-07 08:37:34 51°13.665 2°55.961 126.4 0.1 209 -999
2010-04-07 08:37:39 51°13.665 2°55.961 126.4 0.1 127 -999
2010-04-07 08:37:44 51°13.666 2°55.962 126.4 0.2 102 -999
2010-04-07 08:37:49 51°13.666 2°55.961 126.4 0.1 344 -999
2010-04-07 08:37:54 51°13.666 2°55.961 126.4 0.1 359 -999
2010-04-07 08:37:59 51°13.666 2°55.961 126.4 0.2 338 -999
2010-04-07 08:38:04 51°13.666 2°55.961 126.4 0.2 308 -999
2010-04-07 08:38:09 51°13.666 2°55.961 126.4 0.1 246 -999
2010-04-07 08:38:14 51°13.666 2°55.961 126.4 0.1 218 -999
2010-04-07 08:38:19 51°13.666 2°55.961 126.4 0.1 266 -999
2010-04-07 08:38:24 51°13.666 2°55.961 126.4 0.1 225 -999
2010-04-07 08:38:29 51°13.665 2°55.961 126.4 0.2 208 -999
2010-04-07 08:38:34 51°13.665 2°55.961 126.4 0.1 209 -999
2010-04-07 08:38:39 51°13.665 2°55.961 126.4 0.2 178 -999
2010-04-07 08:38:44 51°13.665 2°55.962 126.4 0.3 154 -999
2010-04-07 08:38:49 51°13.666 2°55.961 126.4 0.1 119 -999
2010-04-07 08:38:54 51°13.666 2°55.961 126.4 0.1 67 -999
2010-04-07 08:38:59 51°13.666 2°55.961 126.4 -999 101 -999
2010-04-07 08:39:04 51°13.665 2°55.96 126.4 0.1 213 -999
2010-04-07 08:39:09 51°13.665 2°55.961 126.4 0.1 154 -999
2010-04-07 08:39:14 51°13.665 2°55.96 126.4 0.1 216 -999
2010-04-07 08:39:19 51°13.666 2°55.96 126.4 0.1 242 -999
2010-04-07 08:39:24 51°13.666 2°55.96 126.4 -999 270 -999
2010-04-07 08:39:29 51°13.666 2°55.96 126.4 0.1 188 -999
2010-04-07 08:39:34 51°13.666 2°55.96 126.4 -999 327 -999
2010-04-07 08:39:39 51°13.665 2°55.959 126.4 0.1 283 -999
2010-04-07 08:39:44 51°13.665 2°55.96 126.4 0.1 166 -999
2010-04-07 08:39:49 51°13.665 2°55.96 126.4 0.2 150 -999
2010-04-07 08:39:54 51°13.665 2°55.96 126.4 0.2 102 -999
2010-04-07 08:39:59 51°13.665 2°55.959 126.4 -999 271 -999
2010-04-07 08:40:04 51°13.665 2°55.959 126.4 0.1 150 -999
2010-04-07 08:40:09 51°13.664 2°55.959 126.4 0.1 227 -999
2010-04-07 08:40:14 51°13.664 2°55.959 126.4 0.2 268 -999
2010-04-07 08:40:19 51°13.665 2°55.959 126.4 -999 301 -999
2010-04-07 08:40:24 51°13.665 2°55.959 126.4 -999 351 -999
2010-04-07 08:40:29 51°13.665 2°55.959 126.4 0.1 308 -999
2010-04-07 08:40:34 51°13.664 2°55.96 126.4 0.1 98 -999
2010-04-07 08:40:39 51°13.664 2°55.96 126.4 0.1 145 -999
2010-04-07 08:40:44 51°13.664 2°55.96 126.4 -999 159 -999
2010-04-07 08:40:49 51°13.664 2°55.96 126.4 -999 95 -999
2010-04-07 08:40:54 51°13.664 2°55.959 126.4 -999 311 -999
2010-04-07 08:40:59 51°13.664 2°55.959 126.4 0.1 308 -999
2010-04-07 08:41:04 51°13.664 2°55.959 126.4 0.1 210 -999
2010-04-07 08:41:09 51°13.664 2°55.959 126.4 0.1 139 -999
2010-04-07 08:41:14 51°13.664 2°55.96 126.4 0.1 82 -999
2010-04-07 08:41:19 51°13.664 2°55.959 126.4 -999 43 -999
2010-04-07 08:41:24 51°13.664 2°55.959 126.4 -999 256 -999
2010-04-07 08:41:29 51°13.664 2°55.959 126.4 0.1 150 -999
2010-04-07 08:41:34 51°13.664 2°55.96 126.4 0.1 73 -999
2010-04-07 08:41:39 51°13.664 2°55.959 126.4 0.1 33 -999
2010-04-07 08:41:45 51°13.664 2°55.959 126.4 0.1 356 -999
2010-04-07 08:41:49 51°13.664 2°55.959 126.4 -999 336 -999
2010-04-07 08:41:54 51°13.664 2°55.959 126.4 0.2 221 -999
2010-04-07 08:41:59 51°13.664 2°55.96 126.4 0.2 132 -999
2010-04-07 08:42:04 51°13.664 2°55.96 126.4 0.1 89 -999
2010-04-07 08:42:09 51°13.664 2°55.96 126.4 0.1 193 -999
2010-04-07 08:42:14 51°13.664 2°55.959 126.4 0.1 222 -999
2010-04-07 08:42:19 51°13.664 2°55.959 126.4 -999 267 -999
2010-04-07 08:42:24 51°13.664 2°55.959 126.4 -999 180 -999
2010-04-07 08:42:29 51°13.664 2°55.959 126.4 0.1 61 -999
2010-04-07 08:42:34 51°13.664 2°55.959 126.4 0.1 152 -999
2010-04-07 08:42:39 51°13.664 2°55.959 126.4 0.2 160 -999
2010-04-07 08:42:44 51°13.664 2°55.959 126.4 0.2 128 -999
2010-04-07 08:42:49 51°13.664 2°55.959 126.4 0.1 121 -999
2010-04-07 08:42:54 51°13.664 2°55.959 126.4 0.1 201 -999
2010-04-07 08:42:59 51°13.664 2°55.958 126.4 0.1 218 -999
2010-04-07 08:43:04 51°13.664 2°55.958 126.4 0.1 241 -999
2010-04-07 08:43:09 51°13.664 2°55.958 126.4 0.1 231 -999
2010-04-07 08:43:14 51°13.664 2°55.958 126.4 0.1 141 -999
2010-04-07 08:43:19 51°13.664 2°55.958 126.4 0.1 123 -999
2010-04-07 08:43:24 51°13.664 2°55.958 126.4 0.1 155 -999
2010-04-07 08:43:29 51°13.664 2°55.958 126.4 -999 310 -999
2010-04-07 08:43:34 51°13.664 2°55.958 126.4 0.2 285 -999
2010-04-07 08:43:39 51°13.664 2°55.958 126.4 0.2 283 -999
2010-04-07 08:43:44 51°13.664 2°55.958 126.4 0.1 305 -999
2010-04-07 08:43:49 51°13.664 2°55.958 126.4 0.1 5 -999
2010-04-07 08:43:54 51°13.664 2°55.958 126.4 0.1 200 -999
2010-04-07 08:43:59 51°13.664 2°55.958 126.4 0.1 261 -999
2010-04-07 08:44:04 51°13.664 2°55.958 126.4 0.1 187 -999
2010-04-07 08:44:09 51°13.664 2°55.958 126.4 0.1 150 -999
2010-04-07 08:44:14 51°13.664 2°55.959 126.4 0.2 95 -999
2010-04-07 08:44:19 51°13.664 2°55.958 126.4 -999 17 -999
2010-04-07 08:44:24 51°13.664 2°55.958 126.4 0.1 278 -999
2010-04-07 08:44:29 51°13.664 2°55.958 126.4 -999 325 -999
2010-04-07 08:44:34 51°13.664 2°55.958 126.4 -999 98 -999
2010-04-07 08:44:40 51°13.663 2°55.958 126.4 -999 99 -999
2010-04-07 08:44:44 51°13.663 2°55.958 126.4 -999 347 -999
2010-04-07 08:44:49 51°13.663 2°55.958 126.4 -999 242 -999
2010-04-07 08:44:54 51°13.663 2°55.957 126.4 0.1 294 -999
2010-04-07 08:44:59 51°13.663 2°55.958 126.4 0.1 277 -999
2010-04-07 08:45:04 51°13.663 2°55.958 126.4 -999 96 -999
2010-04-07 08:45:09 51°13.663 2°55.957 126.4 0.1 323 -999
2010-04-07 08:45:14 51°13.662 2°55.958 126.4 -999 204 -999
2010-04-07 08:45:19 51°13.662 2°55.958 126.4 0.1 215 -999
2010-04-07 08:45:24 51°13.662 2°55.958 126.4 0.1 184 -999
2010-04-07 08:45:29 51°13.662 2°55.958 126.4 0.1 109 -999
2010-04-07 08:45:34 51°13.662 2°55.958 126.4 -999 238 -999
2010-04-07 08:45:39 51°13.662 2°55.958 126.4 0.1 137 -999
2010-04-07 08:45:44 51°13.662 2°55.958 126.4 0.2 168 -999
2010-04-07 08:45:49 51°13.662 2°55.959 126.4 0.1 127 -999
2010-04-07 08:45:54 51°13.662 2°55.958 126.4 -999 48 -999
2010-04-07 08:45:59 51°13.662 2°55.958 126.4 0.1 284 -999
2010-04-07 08:46:04 51°13.662 2°55.958 126.4 0.1 260 -999
2010-04-07 08:46:09 51°13.662 2°55.959 126.4 0.1 144 -999
2010-04-07 08:46:14 51°13.662 2°55.958 126.4 0.1 319 -999
2010-04-07 08:46:19 51°13.662 2°55.959 126.4 -999 203 -999
2010-04-07 08:46:24 51°13.662 2°55.958 126.4 0.1 249 -999
2010-04-07 08:46:29 51°13.662 2°55.959 126.4 -999 229 -999
2010-04-07 08:46:34 51°13.662 2°55.959 126.4 0.1 127 -999
2010-04-07 08:46:39 51°13.662 2°55.959 126.4 0.1 79 -999
2010-04-07 08:46:44 51°13.662 2°55.959 126.4 -999 306 -999
2010-04-07 08:46:49 51°13.662 2°55.959 126.4 0.1 118 -999
2010-04-07 08:46:54 51°13.662 2°55.959 126.4 0.1 156 -999
2010-04-07 08:46:59 51°13.662 2°55.958 126.4 0.1 244 -999
2010-04-07 08:47:04 51°13.662 2°55.958 126.4 0.1 215 -999
2010-04-07 08:47:09 51°13.662 2°55.958 126.4 0.1 214 -999
2010-04-07 08:47:14 51°13.662 2°55.958 126.4 0.1 218 -999
2010-04-07 08:47:19 51°13.662 2°55.958 126.4 0.1 281 -999
2010-04-07 08:47:24 51°13.662 2°55.959 126.4 -999 200 -999
2010-04-07 08:47:29 51°13.662 2°55.959 126.4 0.1 183 -999
2010-04-07 08:47:34 51°13.662 2°55.959 126.4 -999 57 -999